sensor_id;sensor_type;location;lat;lon;timestamp;pressure;altitude;pressure_sealevel;temperature;humidity
61035;BME280;46916;40.564;-7.958;2023-05-20T00:01:48;97393.94;;;17.48;34.27
61035;BME280;46916;40.564;-7.958;2023-05-20T00:03:48;97391.78;;;17.52;34.37
61035;BME280;46916;40.564;-7.958;2023-05-20T00:05:49;97380.22;;;17.45;34.50
61035;BME280;46916;40.564;-7.958;2023-05-20T00:07:50;97376.75;;;17.44;34.87
61035;BME280;46916;40.564;-7.958;2023-05-20T00:09:51;97373.44;;;17.42;35.02
61035;BME280;46916;40.564;-7.958;2023-05-20T00:11:51;97381.88;;;17.46;34.84
61035;BME280;46916;40.564;-7.958;2023-05-20T00:13:52;97382.38;;;17.41;35.09
61035;BME280;46916;40.564;-7.958;2023-05-20T00:15:53;97382.94;;;17.28;35.33
61035;BME280;46916;40.564;-7.958;2023-05-20T00:17:54;97387.25;;;17.29;35.74
61035;BME280;46916;40.564;-7.958;2023-05-20T00:19:55;97380.53;;;17.19;35.78
61035;BME280;46916;40.564;-7.958;2023-05-20T00:21:56;97388.78;;;17.24;36.13
61035;BME280;46916;40.564;-7.958;2023-05-20T00:23:57;97381.53;;;17.09;36.31
61035;BME280;46916;40.564;-7.958;2023-05-20T00:25:58;97383.56;;;16.99;36.27
61035;BME280;46916;40.564;-7.958;2023-05-20T00:27:58;97380.16;;;16.91;36.72
61035;BME280;46916;40.564;-7.958;2023-05-20T00:29:59;97381.81;;;16.83;36.75
61035;BME280;46916;40.564;-7.958;2023-05-20T00:31:59;97386.59;;;16.88;36.70
61035;BME280;46916;40.564;-7.958;2023-05-20T00:34:00;97378.00;;;16.86;36.68
61035;BME280;46916;40.564;-7.958;2023-05-20T00:36:01;97382.44;;;16.86;36.90
61035;BME280;46916;40.564;-7.958;2023-05-20T00:38:01;97379.81;;;16.86;36.83
61035;BME280;46916;40.564;-7.958;2023-05-20T00:40:02;97387.91;;;16.92;36.98
61035;BME280;46916;40.564;-7.958;2023-05-20T00:42:03;97381.28;;;16.88;36.97
61035;BME280;46916;40.564;-7.958;2023-05-20T00:44:04;97375.00;;;16.89;36.83
61035;BME280;46916;40.564;-7.958;2023-05-20T00:46:05;97371.38;;;16.90;37.02
61035;BME280;46916;40.564;-7.958;2023-05-20T00:48:06;97375.97;;;16.96;37.02
61035;BME280;46916;40.564;-7.958;2023-05-20T00:50:08;97387.38;;;16.97;36.96
61035;BME280;46916;40.564;-7.958;2023-05-20T00:52:10;97380.13;;;16.99;36.51
61035;BME280;46916;40.564;-7.958;2023-05-20T00:54:12;97388.72;;;16.93;36.74
61035;BME280;46916;40.564;-7.958;2023-05-20T00:56:14;97385.75;;;16.88;37.08
61035;BME280;46916;40.564;-7.958;2023-05-20T00:58:14;97383.59;;;16.91;36.79
61035;BME280;46916;40.564;-7.958;2023-05-20T01:00:15;97385.59;;;16.89;36.93
61035;BME280;46916;40.564;-7.958;2023-05-20T01:02:16;97383.94;;;16.88;36.85
61035;BME280;46916;40.564;-7.958;2023-05-20T01:04:18;97380.16;;;16.91;37.01
61035;BME280;46916;40.564;-7.958;2023-05-20T01:06:19;97380.63;;;16.94;36.63
61035;BME280;46916;40.564;-7.958;2023-05-20T01:08:24;97392.34;;;17.00;36.69
61035;BME280;46916;40.564;-7.958;2023-05-20T01:10:27;97380.16;;;16.82;36.80
61035;BME280;46916;40.564;-7.958;2023-05-20T01:12:42;97384.47;;;16.83;36.45
61035;BME280;46916;40.564;-7.958;2023-05-20T01:16:57;97375.66;;;16.99;36.01
61035;BME280;46916;40.564;-7.958;2023-05-20T01:19:32;97379.31;;;16.90;35.98
61035;BME280;46916;40.564;-7.958;2023-05-20T01:21:34;97370.91;;;16.87;36.12
61035;BME280;46916;40.564;-7.958;2023-05-20T01:23:40;97377.13;;;16.94;36.10
61035;BME280;46916;40.564;-7.958;2023-05-20T01:25:42;97370.72;;;16.88;36.05
61035;BME280;46916;40.564;-7.958;2023-05-20T01:27:42;97374.06;;;16.82;35.84
61035;BME280;46916;40.564;-7.958;2023-05-20T01:29:44;97376.03;;;16.80;35.77
61035;BME280;46916;40.564;-7.958;2023-05-20T01:31:46;97373.69;;;16.85;35.99
61035;BME280;46916;40.564;-7.958;2023-05-20T01:34:06;97377.38;;;16.76;35.98
61035;BME280;46916;40.564;-7.958;2023-05-20T01:36:07;97376.22;;;16.78;36.13
61035;BME280;46916;40.564;-7.958;2023-05-20T01:38:10;97379.69;;;16.79;35.92
61035;BME280;46916;40.564;-7.958;2023-05-20T01:40:14;97372.75;;;16.78;35.79
61035;BME280;46916;40.564;-7.958;2023-05-20T01:42:16;97376.38;;;16.77;35.60
61035;BME280;46916;40.564;-7.958;2023-05-20T01:44:17;97371.25;;;16.75;35.74
61035;BME280;46916;40.564;-7.958;2023-05-20T01:46:17;97379.50;;;16.72;35.42
61035;BME280;46916;40.564;-7.958;2023-05-20T01:48:18;97376.38;;;16.77;35.32
61035;BME280;46916;40.564;-7.958;2023-05-20T01:50:19;97373.91;;;16.75;35.12
61035;BME280;46916;40.564;-7.958;2023-05-20T01:52:21;97377.84;;;16.71;35.37
61035;BME280;46916;40.564;-7.958;2023-05-20T01:54:21;97380.81;;;16.68;35.36
61035;BME280;46916;40.564;-7.958;2023-05-20T01:56:22;97371.44;;;16.66;35.36
61035;BME280;46916;40.564;-7.958;2023-05-20T01:58:42;97373.09;;;16.75;35.06
61035;BME280;46916;40.564;-7.958;2023-05-20T02:00:42;97378.84;;;16.70;35.13
61035;BME280;46916;40.564;-7.958;2023-05-20T02:02:43;97374.53;;;16.69;35.08
61035;BME280;46916;40.564;-7.958;2023-05-20T02:04:47;97378.38;;;16.75;35.07
61035;BME280;46916;40.564;-7.958;2023-05-20T02:06:48;97385.78;;;16.79;34.73
61035;BME280;46916;40.564;-7.958;2023-05-20T02:08:49;97378.38;;;16.75;34.29
61035;BME280;46916;40.564;-7.958;2023-05-20T02:10:49;97373.72;;;16.77;34.02
61035;BME280;46916;40.564;-7.958;2023-05-20T02:12:50;97372.06;;;16.76;34.07
61035;BME280;46916;40.564;-7.958;2023-05-20T02:14:51;97368.28;;;16.70;34.12
61035;BME280;46916;40.564;-7.958;2023-05-20T02:16:51;97369.75;;;16.73;34.24
61035;BME280;46916;40.564;-7.958;2023-05-20T02:18:53;97359.84;;;16.67;34.13
61035;BME280;46916;40.564;-7.958;2023-05-20T02:20:53;97364.47;;;16.65;34.43
61035;BME280;46916;40.564;-7.958;2023-05-20T02:22:54;97358.34;;;16.72;34.20
61035;BME280;46916;40.564;-7.958;2023-05-20T02:24:55;97354.91;;;16.64;34.17
61035;BME280;46916;40.564;-7.958;2023-05-20T02:26:55;97351.91;;;16.67;34.14
61035;BME280;46916;40.564;-7.958;2023-05-20T02:28:58;97351.25;;;16.65;33.92
61035;BME280;46916;40.564;-7.958;2023-05-20T02:30:58;97362.81;;;16.72;33.28
61035;BME280;46916;40.564;-7.958;2023-05-20T02:32:59;97348.63;;;16.56;33.55
61035;BME280;46916;40.564;-7.958;2023-05-20T02:35:00;97367.81;;;16.58;33.46
61035;BME280;46916;40.564;-7.958;2023-05-20T02:37:02;97366.63;;;16.53;33.74
61035;BME280;46916;40.564;-7.958;2023-05-20T02:39:03;97359.56;;;16.53;33.60
61035;BME280;46916;40.564;-7.958;2023-05-20T02:41:05;97358.72;;;16.53;33.64
61035;BME280;46916;40.564;-7.958;2023-05-20T02:43:05;97358.25;;;16.49;33.35
61035;BME280;46916;40.564;-7.958;2023-05-20T02:45:08;97357.22;;;16.58;33.12
61035;BME280;46916;40.564;-7.958;2023-05-20T02:47:09;97354.28;;;16.53;33.27
61035;BME280;46916;40.564;-7.958;2023-05-20T02:49:09;97357.56;;;16.47;33.14
61035;BME280;46916;40.564;-7.958;2023-05-20T02:51:10;97361.38;;;16.45;32.95
61035;BME280;46916;40.564;-7.958;2023-05-20T02:53:12;97359.91;;;16.42;32.92
61035;BME280;46916;40.564;-7.958;2023-05-20T02:55:13;97358.09;;;16.43;32.80
61035;BME280;46916;40.564;-7.958;2023-05-20T02:57:14;97355.94;;;16.38;32.33
61035;BME280;46916;40.564;-7.958;2023-05-20T02:59:15;97352.28;;;16.47;32.00
61035;BME280;46916;40.564;-7.958;2023-05-20T03:01:16;97352.13;;;16.41;32.21
61035;BME280;46916;40.564;-7.958;2023-05-20T03:03:16;97347.84;;;16.31;32.24
61035;BME280;46916;40.564;-7.958;2023-05-20T03:05:17;97354.97;;;16.31;32.40
61035;BME280;46916;40.564;-7.958;2023-05-20T03:07:18;97340.63;;;16.25;32.47
61035;BME280;46916;40.564;-7.958;2023-05-20T03:09:20;97336.31;;;16.16;32.61
61035;BME280;46916;40.564;-7.958;2023-05-20T03:11:21;97340.75;;;16.24;32.71
61035;BME280;46916;40.564;-7.958;2023-05-20T03:13:22;97345.41;;;16.14;32.27
61035;BME280;46916;40.564;-7.958;2023-05-20T03:15:23;97342.25;;;16.18;31.48
61035;BME280;46916;40.564;-7.958;2023-05-20T03:17:23;97337.97;;;16.17;31.63
61035;BME280;46916;40.564;-7.958;2023-05-20T03:19:24;97346.06;;;16.16;31.42
61035;BME280;46916;40.564;-7.958;2023-05-20T03:21:25;97337.16;;;16.08;31.63
61035;BME280;46916;40.564;-7.958;2023-05-20T03:23:26;97337.16;;;16.08;31.41
61035;BME280;46916;40.564;-7.958;2023-05-20T03:25:27;97341.97;;;15.97;31.69
61035;BME280;46916;40.564;-7.958;2023-05-20T03:27:28;97338.31;;;15.98;31.62
61035;BME280;46916;40.564;-7.958;2023-05-20T03:29:28;97351.03;;;16.02;31.32
61035;BME280;46916;40.564;-7.958;2023-05-20T03:31:29;97348.72;;;15.91;31.35
61035;BME280;46916;40.564;-7.958;2023-05-20T03:33:30;97346.25;;;15.90;31.18
61035;BME280;46916;40.564;-7.958;2023-05-20T03:35:31;97357.81;;;15.89;30.89
61035;BME280;46916;40.564;-7.958;2023-05-20T03:37:31;97353.34;;;15.89;30.79
61035;BME280;46916;40.564;-7.958;2023-05-20T03:39:32;97351.53;;;15.90;30.73
61035;BME280;46916;40.564;-7.958;2023-05-20T03:41:33;97351.22;;;15.84;30.76
61035;BME280;46916;40.564;-7.958;2023-05-20T03:43:35;97356.97;;;15.80;30.53
61035;BME280;46916;40.564;-7.958;2023-05-20T03:45:36;97360.59;;;15.71;31.00
61035;BME280;46916;40.564;-7.958;2023-05-20T03:47:39;97366.53;;;15.65;31.14
61035;BME280;46916;40.564;-7.958;2023-05-20T03:49:40;97359.22;;;15.58;31.16
61035;BME280;46916;40.564;-7.958;2023-05-20T03:51:41;97350.81;;;15.63;31.18
61035;BME280;46916;40.564;-7.958;2023-05-20T03:53:45;97354.94;;;15.57;31.23
61035;BME280;46916;40.564;-7.958;2023-05-20T03:55:45;97353.94;;;15.58;31.36
61035;BME280;46916;40.564;-7.958;2023-05-20T03:57:47;97344.88;;;15.53;31.36
61035;BME280;46916;40.564;-7.958;2023-05-20T03:59:48;97346.69;;;15.60;31.18
61035;BME280;46916;40.564;-7.958;2023-05-20T04:01:49;97347.34;;;15.54;31.22
61035;BME280;46916;40.564;-7.958;2023-05-20T04:03:49;97349.00;;;15.47;31.68
61035;BME280;46916;40.564;-7.958;2023-05-20T04:05:50;97355.91;;;15.48;31.62
61035;BME280;46916;40.564;-7.958;2023-05-20T04:07:54;97350.31;;;15.43;31.78
61035;BME280;46916;40.564;-7.958;2023-05-20T04:09:57;97340.22;;;15.47;31.79
61035;BME280;46916;40.564;-7.958;2023-05-20T04:11:58;97344.53;;;15.40;31.96
61035;BME280;46916;40.564;-7.958;2023-05-20T04:13:59;97337.91;;;15.35;32.07
61035;BME280;46916;40.564;-7.958;2023-05-20T04:16:00;97338.06;;;15.42;32.16
61035;BME280;46916;40.564;-7.958;2023-05-20T04:18:01;97331.97;;;15.33;32.30
61035;BME280;46916;40.564;-7.958;2023-05-20T04:20:03;97332.13;;;15.32;32.34
61035;BME280;46916;40.564;-7.958;2023-05-20T04:22:06;97334.91;;;15.30;32.57
61035;BME280;46916;40.564;-7.958;2023-05-20T04:24:07;97327.19;;;15.37;32.64
61035;BME280;46916;40.564;-7.958;2023-05-20T04:26:08;97328.19;;;15.36;32.90
61035;BME280;46916;40.564;-7.958;2023-05-20T04:28:08;97327.19;;;15.37;32.90
61035;BME280;46916;40.564;-7.958;2023-05-20T04:30:10;97335.59;;;15.41;33.05
61035;BME280;46916;40.564;-7.958;2023-05-20T04:32:17;97320.75;;;15.31;33.29
61035;BME280;46916;40.564;-7.958;2023-05-20T04:34:18;97330.50;;;15.31;33.30
61035;BME280;46916;40.564;-7.958;2023-05-20T04:36:26;97336.72;;;15.30;33.32
61035;BME280;46916;40.564;-7.958;2023-05-20T04:38:28;97329.97;;;15.27;33.65
61035;BME280;46916;40.564;-7.958;2023-05-20T04:40:29;97327.31;;;15.19;33.73
61035;BME280;46916;40.564;-7.958;2023-05-20T04:42:32;97328.00;;;15.29;33.73
61035;BME280;46916;40.564;-7.958;2023-05-20T04:44:33;97328.66;;;15.23;34.06
61035;BME280;46916;40.564;-7.958;2023-05-20T04:46:34;97331.59;;;15.20;34.23
61035;BME280;46916;40.564;-7.958;2023-05-20T04:48:34;97332.91;;;15.16;34.18
61035;BME280;46916;40.564;-7.958;2023-05-20T04:50:36;97316.25;;;15.07;34.51
61035;BME280;46916;40.564;-7.958;2023-05-20T04:52:37;97318.88;;;15.07;34.53
61035;BME280;46916;40.564;-7.958;2023-05-20T04:54:39;97321.53;;;15.07;34.58
61035;BME280;46916;40.564;-7.958;2023-05-20T04:56:40;97313.09;;;15.04;34.88
61035;BME280;46916;40.564;-7.958;2023-05-20T04:58:40;97314.56;;;14.98;34.85
61035;BME280;46916;40.564;-7.958;2023-05-20T05:00:43;97314.75;;;15.05;35.20
61035;BME280;46916;40.564;-7.958;2023-05-20T05:02:44;97323.13;;;15.00;35.25
61035;BME280;46916;40.564;-7.958;2023-05-20T05:04:45;97324.75;;;14.93;35.28
61035;BME280;46916;40.564;-7.958;2023-05-20T05:06:47;97313.88;;;14.88;35.44
61035;BME280;46916;40.564;-7.958;2023-05-20T05:08:48;97326.06;;;14.89;35.57
61035;BME280;46916;40.564;-7.958;2023-05-20T05:10:49;97330.03;;;14.93;35.74
61035;BME280;46916;40.564;-7.958;2023-05-20T05:12:49;97324.44;;;14.96;35.76
61035;BME280;46916;40.564;-7.958;2023-05-20T05:14:50;97316.72;;;14.95;35.82
61035;BME280;46916;40.564;-7.958;2023-05-20T05:16:51;97315.72;;;14.96;36.05
61035;BME280;46916;40.564;-7.958;2023-05-20T05:18:54;97310.91;;;14.91;36.11
61035;BME280;46916;40.564;-7.958;2023-05-20T05:21:03;97318.19;;;14.97;36.33
61035;BME280;46916;40.564;-7.958;2023-05-20T05:23:04;97308.44;;;14.98;36.22
61035;BME280;46916;40.564;-7.958;2023-05-20T05:25:06;97300.69;;;14.88;36.34
61035;BME280;46916;40.564;-7.958;2023-05-20T05:27:07;97304.97;;;14.89;36.63
61035;BME280;46916;40.564;-7.958;2023-05-20T05:29:08;97310.59;;;14.94;36.53
61035;BME280;46916;40.564;-7.958;2023-05-20T05:31:08;97310.13;;;14.99;36.55
61035;BME280;46916;40.564;-7.958;2023-05-20T05:33:09;97306.16;;;14.95;36.67
61035;BME280;46916;40.564;-7.958;2023-05-20T05:35:10;97311.78;;;15.00;36.77
61035;BME280;46916;40.564;-7.958;2023-05-20T05:37:11;97315.03;;;14.94;36.97
61035;BME280;46916;40.564;-7.958;2023-05-20T05:39:12;97296.53;;;14.85;36.94
61035;BME280;46916;40.564;-7.958;2023-05-20T05:41:14;97304.66;;;14.92;37.08
61035;BME280;46916;40.564;-7.958;2023-05-20T05:43:14;97303.34;;;14.96;37.05
61035;BME280;46916;40.564;-7.958;2023-05-20T05:45:16;97301.38;;;14.98;37.31
61035;BME280;46916;40.564;-7.958;2023-05-20T05:47:34;97312.06;;;14.89;37.26
61035;BME280;46916;40.564;-7.958;2023-05-20T05:49:36;97305.16;;;14.96;37.41
61035;BME280;46916;40.564;-7.958;2023-05-20T05:51:36;97306.28;;;14.93;37.40
61035;BME280;46916;40.564;-7.958;2023-05-20T05:53:37;97310.94;;;14.99;37.38
61035;BME280;46916;40.564;-7.958;2023-05-20T05:55:38;97308.78;;;14.86;37.76
61035;BME280;46916;40.564;-7.958;2023-05-20T05:57:39;97314.19;;;14.85;37.87
61035;BME280;46916;40.564;-7.958;2023-05-20T05:59:40;97306.59;;;14.82;37.93
61035;BME280;46916;40.564;-7.958;2023-05-20T06:01:42;97309.25;;;14.82;37.99
61035;BME280;46916;40.564;-7.958;2023-05-20T06:03:43;97311.91;;;14.90;38.12
61035;BME280;46916;40.564;-7.958;2023-05-20T06:05:44;97307.59;;;14.89;38.10
61035;BME280;46916;40.564;-7.958;2023-05-20T06:07:46;97312.91;;;14.97;37.94
61035;BME280;46916;40.564;-7.958;2023-05-20T06:09:47;97310.28;;;15.05;37.81
61035;BME280;46916;40.564;-7.958;2023-05-20T06:11:47;97307.00;;;15.03;38.03
61035;BME280;46916;40.564;-7.958;2023-05-20T06:13:49;97311.94;;;14.98;37.97
61035;BME280;46916;40.564;-7.958;2023-05-20T06:15:49;97310.94;;;14.99;38.15
61035;BME280;46916;40.564;-7.958;2023-05-20T06:17:50;97309.75;;;14.94;38.24
61035;BME280;46916;40.564;-7.958;2023-05-20T06:19:51;97316.81;;;14.85;38.40
61035;BME280;46916;40.564;-7.958;2023-05-20T06:21:52;97318.31;;;14.88;38.65
61035;BME280;46916;40.564;-7.958;2023-05-20T06:23:53;97311.91;;;14.90;38.70
61035;BME280;46916;40.564;-7.958;2023-05-20T06:25:57;97316.84;;;14.93;38.46
61035;BME280;46916;40.564;-7.958;2023-05-20T06:27:58;97310.25;;;14.97;38.53
61035;BME280;46916;40.564;-7.958;2023-05-20T06:29:59;97313.72;;;14.98;38.65
61035;BME280;46916;40.564;-7.958;2023-05-20T06:31:59;97307.50;;;14.99;38.68
61035;BME280;46916;40.564;-7.958;2023-05-20T06:34:00;97302.56;;;15.04;38.74
61035;BME280;46916;40.564;-7.958;2023-05-20T06:36:01;97304.50;;;15.02;38.83
61035;BME280;46916;40.564;-7.958;2023-05-20T06:38:02;97308.00;;;15.02;38.72
61035;BME280;46916;40.564;-7.958;2023-05-20T06:40:03;97307.50;;;14.99;38.74
61035;BME280;46916;40.564;-7.958;2023-05-20T06:42:04;97306.50;;;15.00;38.97
61035;BME280;46916;40.564;-7.958;2023-05-20T06:44:09;97303.34;;;14.96;39.01
61035;BME280;46916;40.564;-7.958;2023-05-20T06:46:34;97306.16;;;14.95;39.04
61035;BME280;46916;40.564;-7.958;2023-05-20T06:48:46;97307.63;;;14.97;39.24
61035;BME280;46916;40.564;-7.958;2023-05-20T06:50:47;97299.56;;;14.99;39.19
61035;BME280;46916;40.564;-7.958;2023-05-20T06:52:48;97300.91;;;15.03;39.35
61035;BME280;46916;40.564;-7.958;2023-05-20T06:54:49;97299.91;;;15.04;39.37
61035;BME280;46916;40.564;-7.958;2023-05-20T06:56:51;97303.38;;;15.04;39.45
61035;BME280;46916;40.564;-7.958;2023-05-20T06:58:54;97294.44;;;14.97;39.35
61035;BME280;46916;40.564;-7.958;2023-05-20T07:00:55;97303.88;;;15.08;39.37
61035;BME280;46916;40.564;-7.958;2023-05-20T07:02:56;97298.41;;;15.01;39.59
61035;BME280;46916;40.564;-7.958;2023-05-20T07:04:57;97292.31;;;15.01;39.75
61035;BME280;46916;40.564;-7.958;2023-05-20T07:06:58;97295.47;;;15.04;39.52
61035;BME280;46916;40.564;-7.958;2023-05-20T07:08:58;97295.47;;;15.04;39.78
61035;BME280;46916;40.564;-7.958;2023-05-20T07:11:00;97288.53;;;15.03;39.79
61035;BME280;46916;40.564;-7.958;2023-05-20T07:13:02;97294.13;;;15.00;39.94
61035;BME280;46916;40.564;-7.958;2023-05-20T07:15:03;97298.41;;;15.01;39.97
61035;BME280;46916;40.564;-7.958;2023-05-20T07:17:05;97278.97;;;14.94;39.94
61035;BME280;46916;40.564;-7.958;2023-05-20T07:19:06;97280.28;;;14.98;39.88
61035;BME280;46916;40.564;-7.958;2023-05-20T07:21:07;97281.13;;;14.99;40.06
61035;BME280;46916;40.564;-7.958;2023-05-20T07:23:17;97278.00;;;15.03;39.55
61035;BME280;46916;40.564;-7.958;2023-05-20T07:25:22;97278.63;;;15.05;39.92
61035;BME280;46916;40.564;-7.958;2023-05-20T07:27:22;97274.38;;;15.13;39.92
61035;BME280;46916;40.564;-7.958;2023-05-20T07:29:23;97272.22;;;15.00;39.85
61035;BME280;46916;40.564;-7.958;2023-05-20T07:31:24;97271.06;;;14.94;39.96
61035;BME280;46916;40.564;-7.958;2023-05-20T07:33:24;97261.47;;;14.93;39.92
61035;BME280;46916;40.564;-7.958;2023-05-20T07:35:25;97264.78;;;14.95;39.97
61035;BME280;46916;40.564;-7.958;2023-05-20T07:37:26;97264.13;;;15.01;39.87
61035;BME280;46916;40.564;-7.958;2023-05-20T07:39:27;97253.44;;;15.03;40.07
61035;BME280;46916;40.564;-7.958;2023-05-20T07:41:27;97263.31;;;15.01;39.78
61035;BME280;46916;40.564;-7.958;2023-05-20T07:43:28;97260.84;;;14.99;39.79
61035;BME280;46916;40.564;-7.958;2023-05-20T07:45:30;97263.00;;;15.04;39.74
61035;BME280;46916;40.564;-7.958;2023-05-20T07:47:31;97256.56;;;14.98;39.95
61035;BME280;46916;40.564;-7.958;2023-05-20T07:49:33;97263.16;;;15.02;40.17
61035;BME280;46916;40.564;-7.958;2023-05-20T07:51:34;97265.94;;;15.01;39.88
61035;BME280;46916;40.564;-7.958;2023-05-20T07:53:34;97259.50;;;14.95;39.97
61035;BME280;46916;40.564;-7.958;2023-05-20T07:55:35;97259.19;;;14.90;40.13
61035;BME280;46916;40.564;-7.958;2023-05-20T07:57:37;97262.81;;;15.05;39.92
61035;BME280;46916;40.564;-7.958;2023-05-20T07:59:38;97255.56;;;14.99;39.86
61035;BME280;46916;40.564;-7.958;2023-05-20T08:01:40;97256.72;;;15.05;40.04
61035;BME280;46916;40.564;-7.958;2023-05-20T08:03:41;97252.78;;;15.17;40.04
61035;BME280;46916;40.564;-7.958;2023-05-20T08:05:47;97252.28;;;15.22;39.96
61035;BME280;46916;40.564;-7.958;2023-05-20T08:07:48;97251.16;;;15.32;39.58
61035;BME280;46916;40.564;-7.958;2023-05-20T08:09:50;97246.38;;;15.28;39.52
61035;BME280;46916;40.564;-7.958;2023-05-20T08:11:50;97245.56;;;15.27;39.50
61035;BME280;46916;40.564;-7.958;2023-05-20T08:13:51;97241.75;;;15.30;39.67
61035;BME280;46916;40.564;-7.958;2023-05-20T08:15:53;97238.47;;;15.36;39.43
61035;BME280;46916;40.564;-7.958;2023-05-20T08:17:54;97238.47;;;15.44;38.94
61035;BME280;46916;40.564;-7.958;2023-05-20T08:19:55;97240.09;;;15.37;39.98
61035;BME280;46916;40.564;-7.958;2023-05-20T08:21:56;97236.81;;;15.51;39.63
61035;BME280;46916;40.564;-7.958;2023-05-20T08:23:56;97223.97;;;15.65;38.99
61035;BME280;46916;40.564;-7.958;2023-05-20T08:25:57;97237.16;;;15.56;38.56
61035;BME280;46916;40.564;-7.958;2023-05-20T08:28:03;97227.09;;;15.52;39.14
61035;BME280;46916;40.564;-7.958;2023-05-20T08:30:06;97226.28;;;15.51;38.78
61035;BME280;46916;40.564;-7.958;2023-05-20T08:32:10;97222.13;;;15.41;39.08
61035;BME280;46916;40.564;-7.958;2023-05-20T08:34:10;97222.63;;;15.36;39.37
61035;BME280;46916;40.564;-7.958;2023-05-20T08:36:12;97212.91;;;15.45;39.30
61035;BME280;46916;40.564;-7.958;2023-05-20T08:38:13;97215.03;;;15.41;39.10
61035;BME280;46916;40.564;-7.958;2023-05-20T08:40:14;97215.22;;;15.40;39.05
61035;BME280;46916;40.564;-7.958;2023-05-20T08:42:20;97217.34;;;15.52;39.09
61035;BME280;46916;40.564;-7.958;2023-05-20T08:44:21;97213.91;;;15.52;39.02
61035;BME280;46916;40.564;-7.958;2023-05-20T08:46:24;97213.53;;;15.63;38.66
61035;BME280;46916;40.564;-7.958;2023-05-20T08:48:25;97214.06;;;15.67;38.53
61035;BME280;46916;40.564;-7.958;2023-05-20T08:50:27;97208.78;;;15.67;38.42
61035;BME280;46916;40.564;-7.958;2023-05-20T08:52:30;97217.50;;;15.75;39.00
61035;BME280;46916;40.564;-7.958;2023-05-20T08:54:47;97212.56;;;15.80;38.59
61035;BME280;46916;40.564;-7.958;2023-05-20T08:56:48;97223.44;;;15.85;38.81
61035;BME280;46916;40.564;-7.958;2023-05-20T08:58:49;97209.38;;;16.01;38.12
61035;BME280;46916;40.564;-7.958;2023-05-20T09:00:50;97200.28;;;16.04;38.18
61035;BME280;46916;40.564;-7.958;2023-05-20T09:02:52;97201.94;;;16.05;38.31
61035;BME280;46916;40.564;-7.958;2023-05-20T09:04:54;97209.84;;;16.13;38.50
61035;BME280;46916;40.564;-7.958;2023-05-20T09:06:54;97202.72;;;16.22;37.36
61035;BME280;46916;40.564;-7.958;2023-05-20T09:08:55;97218.22;;;16.33;37.28
61035;BME280;46916;40.564;-7.958;2023-05-20T09:10:56;97209.47;;;16.24;37.66
61035;BME280;46916;40.564;-7.958;2023-05-20T09:12:56;97199.75;;;16.25;38.03
61035;BME280;46916;40.564;-7.958;2023-05-20T09:14:57;97208.94;;;16.37;38.53
61035;BME280;46916;40.564;-7.958;2023-05-20T09:16:58;97219.13;;;16.48;37.60
61035;BME280;46916;40.564;-7.958;2023-05-20T09:18:59;97209.50;;;16.55;37.12
61035;BME280;46916;40.564;-7.958;2023-05-20T09:21:04;97212.84;;;16.49;37.54
61035;BME280;46916;40.564;-7.958;2023-05-20T09:23:08;97206.19;;;16.62;37.03
61035;BME280;46916;40.564;-7.958;2023-05-20T09:25:09;97207.34;;;16.59;36.97
61035;BME280;46916;40.564;-7.958;2023-05-20T09:27:11;97203.41;;;16.55;37.54
61035;BME280;46916;40.564;-7.958;2023-05-20T09:29:12;97192.94;;;16.70;36.72
61035;BME280;46916;40.564;-7.958;2023-05-20T09:31:13;97195.91;;;16.67;36.52
61035;BME280;46916;40.564;-7.958;2023-05-20T09:33:14;97198.03;;;16.71;37.14
61035;BME280;46916;40.564;-7.958;2023-05-20T09:35:15;97194.72;;;16.69;37.29
61035;BME280;46916;40.564;-7.958;2023-05-20T09:37:20;97192.75;;;16.71;36.93
61035;BME280;46916;40.564;-7.958;2023-05-20T09:39:24;97190.44;;;16.68;36.97
61035;BME280;46916;40.564;-7.958;2023-05-20T09:41:38;97188.28;;;16.72;37.23
61035;BME280;46916;40.564;-7.958;2023-05-20T09:43:39;97189.59;;;16.76;37.38
61035;BME280;46916;40.564;-7.958;2023-05-20T09:45:40;97190.72;;;16.81;37.31
61035;BME280;46916;40.564;-7.958;2023-05-20T09:47:42;97179.63;;;16.86;37.11
61035;BME280;46916;40.564;-7.958;2023-05-20T09:49:45;97177.38;;;16.98;36.76
61035;BME280;46916;40.564;-7.958;2023-05-20T09:51:50;97172.09;;;16.98;36.91
61035;BME280;46916;40.564;-7.958;2023-05-20T09:53:52;97174.22;;;17.02;37.28
61035;BME280;46916;40.564;-7.958;2023-05-20T09:55:54;97178.13;;;17.15;36.96
61035;BME280;46916;40.564;-7.958;2023-05-20T09:57:55;97172.44;;;17.18;36.88
61035;BME280;46916;40.564;-7.958;2023-05-20T09:59:56;97174.94;;;17.19;36.41
61035;BME280;46916;40.564;-7.958;2023-05-20T10:01:57;97171.75;;;17.24;36.50
61035;BME280;46916;40.564;-7.958;2023-05-20T10:03:58;97168.81;;;17.19;36.68
61035;BME280;46916;40.564;-7.958;2023-05-20T10:06:15;97172.44;;;17.18;37.36
61035;BME280;46916;40.564;-7.958;2023-05-20T10:10:47;97168.16;;;17.40;37.13
61035;BME280;46916;40.564;-7.958;2023-05-20T10:13:17;97162.13;;;17.46;36.99
61035;BME280;46916;40.564;-7.958;2023-05-20T10:15:39;97163.59;;;17.48;36.90
61035;BME280;46916;40.564;-7.958;2023-05-20T10:18:05;97158.94;;;17.50;37.13
61035;BME280;46916;40.564;-7.958;2023-05-20T10:20:09;97163.44;;;17.65;36.72
61035;BME280;46916;40.564;-7.958;2023-05-20T10:22:13;97162.63;;;17.64;35.98
61035;BME280;46916;40.564;-7.958;2023-05-20T10:24:13;97154.50;;;17.66;35.57
61035;BME280;46916;40.564;-7.958;2023-05-20T10:26:14;97147.09;;;17.61;35.57
61035;BME280;46916;40.564;-7.958;2023-05-20T10:28:15;97157.50;;;17.63;35.65
61035;BME280;46916;40.564;-7.958;2023-05-20T10:30:17;97158.97;;;17.65;36.44
61035;BME280;46916;40.564;-7.958;2023-05-20T10:32:29;97154.69;;;17.64;37.18
61035;BME280;46916;40.564;-7.958;2023-05-20T10:34:44;97161.00;;;17.78;37.24
61035;BME280;46916;40.564;-7.958;2023-05-20T10:37:06;97144.13;;;17.79;37.63
61035;BME280;46916;40.564;-7.958;2023-05-20T10:39:06;97153.19;;;17.85;37.44
61035;BME280;46916;40.564;-7.958;2023-05-20T10:41:08;97145.13;;;17.93;36.51
61035;BME280;46916;40.564;-7.958;2023-05-20T10:43:29;97136.53;;;17.91;36.47
61035;BME280;46916;40.564;-7.958;2023-05-20T10:45:30;97131.34;;;17.97;35.81